Aviation Digital Data Service (ADDS)

Output produced by METARs form (1058 UTC 25 October 2020)
found at http://aviationweather.gov/metar/data/
 
METAR text: KCVH 251055Z AUTO 00000KT 10SM OVC024 15/12 A2994 RMK A01
Conditions at: KCVH (HOLLISTER MUNI , CA, US) observed 1055 UTC 25 October 2020
Temperature: 15.0°C (59°F)
Dewpoint: 12.0°C (54°F) [RH = 82%]
Pressure (altimeter): 29.94 inches Hg (1014.0 mb)
Winds: calm
Visibility: 10 or more miles (16+ km)
Ceiling: 2400 feet AGL
Clouds: overcast cloud deck at 2400 feet AGL
Weather: automated observation with no human augmentation;
there may or may not be significant weather present at this time